Harwood, Texas
Current Conditions -  °F | °C
As of 1:47 PM on Friday 31 Oct 2014 (Local Time) from KHYI Reporting Station
Clear Clear  
Wind Chill: 75°   Ceiling: Unl
Heat Index: 75°   Visibility: 10mi
Dew Point: 41°   Wind: 21mph
Humidity: 29%   Direction: 20°NNE
Pressure: 30.26"   Gusts: 28mph
Location:  29.67°N, 97.51°W
Report Text: KHYI 311847Z 02018G24KT 10SM CLR 24/05 A3026
Loading
Personal Weather Stations






























Interactive Weather Map
Tropical Storm Tracking
New forecast layout! Learn more

10-Day Weather Forecast

Advertisements
Track Severe Weather on mobile